sensor_id;sensor_type;location;lat;lon;timestamp;pressure;altitude;pressure_sealevel;temperature;humidity
70198;BME280;57582;-34.876;138.628;2022-12-18T00:01:27;101175;;;25.03;33.93
70198;BME280;57582;-34.876;138.628;2022-12-18T00:04:26;101172;;;25.03;33.71
70198;BME280;57582;-34.876;138.628;2022-12-18T00:07:27;101176;;;25.36;33.21
70198;BME280;57582;-34.876;138.628;2022-12-18T00:10:27;101170;;;25.65;33.72
70198;BME280;57582;-34.876;138.628;2022-12-18T00:13:26;101158;;;25.80;34.25
70198;BME280;57582;-34.876;138.628;2022-12-18T00:16:27;101159;;;25.77;32.57
70198;BME280;57582;-34.876;138.628;2022-12-18T00:19:27;101148;;;25.86;32.59
70198;BME280;57582;-34.876;138.628;2022-12-18T00:22:26;101146;;;25.98;32.73
70198;BME280;57582;-34.876;138.628;2022-12-18T00:25:26;101137;;;26.14;32.35
70198;BME280;57582;-34.876;138.628;2022-12-18T00:28:26;101139;;;26.39;32.64
70198;BME280;57582;-34.876;138.628;2022-12-18T00:31:27;101138;;;26.73;33.68
70198;BME280;57582;-34.876;138.628;2022-12-18T00:34:26;101132;;;27.03;30.97
70198;BME280;57582;-34.876;138.628;2022-12-18T00:37:26;101131;;;26.75;31.01
70198;BME280;57582;-34.876;138.628;2022-12-18T00:40:26;101129;;;26.29;32.39
70198;BME280;57582;-34.876;138.628;2022-12-18T00:43:27;101127;;;26.50;31.85
70198;BME280;57582;-34.876;138.628;2022-12-18T00:46:26;101131;;;26.55;32.03
70198;BME280;57582;-34.876;138.628;2022-12-18T00:49:26;101133;;;26.70;32.30
70198;BME280;57582;-34.876;138.628;2022-12-18T00:52:26;101120;;;26.50;32.09
70198;BME280;57582;-34.876;138.628;2022-12-18T00:55:27;101128;;;26.40;32.34
70198;BME280;57582;-34.876;138.628;2022-12-18T00:58:26;101128;;;26.65;31.23
70198;BME280;57582;-34.876;138.628;2022-12-18T01:01:26;101126;;;26.39;31.12
70198;BME280;57582;-34.876;138.628;2022-12-18T01:04:26;101111;;;26.25;31.38
70198;BME280;57582;-34.876;138.628;2022-12-18T01:07:27;101111;;;26.68;31.62
70198;BME280;57582;-34.876;138.628;2022-12-18T01:10:26;101114;;;26.88;32.01
70198;BME280;57582;-34.876;138.628;2022-12-18T01:13:26;101107;;;26.71;31.64
70198;BME280;57582;-34.876;138.628;2022-12-18T01:16:26;101109;;;26.59;31.58
70198;BME280;57582;-34.876;138.628;2022-12-18T01:19:27;101107;;;26.46;31.88
70198;BME280;57582;-34.876;138.628;2022-12-18T01:22:26;101102;;;26.58;31.83
70198;BME280;57582;-34.876;138.628;2022-12-18T01:25:26;101104;;;26.92;31.08
70198;BME280;57582;-34.876;138.628;2022-12-18T01:28:26;101104;;;26.89;31.92
70198;BME280;57582;-34.876;138.628;2022-12-18T01:31:28;101091;;;27.02;29.75
70198;BME280;57582;-34.876;138.628;2022-12-18T01:34:26;101095;;;27.17;30.92
70198;BME280;57582;-34.876;138.628;2022-12-18T01:37:26;101097;;;27.39;29.64
70198;BME280;57582;-34.876;138.628;2022-12-18T01:40:27;101095;;;27.17;29.45
70198;BME280;57582;-34.876;138.628;2022-12-18T01:43:43;101088;;;27.26;31.06
70198;BME280;57582;-34.876;138.628;2022-12-18T01:46:26;101084;;;27.37;30.31
70198;BME280;57582;-34.876;138.628;2022-12-18T01:49:26;101085;;;27.19;30.18
70198;BME280;57582;-34.876;138.628;2022-12-18T01:52:27;101075;;;27.27;29.62
70198;BME280;57582;-34.876;138.628;2022-12-18T01:55:29;101088;;;27.54;29.22
70198;BME280;57582;-34.876;138.628;2022-12-18T02:01:26;101080;;;27.62;29.77
70198;BME280;57582;-34.876;138.628;2022-12-18T02:04:26;101079;;;27.96;29.73
70198;BME280;57582;-34.876;138.628;2022-12-18T02:28:28;101059;;;27.84;28.99
70198;BME280;57582;-34.876;138.628;2022-12-18T02:31:29;101060;;;27.78;28.42
70198;BME280;57582;-34.876;138.628;2022-12-18T02:34:28;101059;;;27.34;29.03
70198;BME280;57582;-34.876;138.628;2022-12-18T02:37:26;101056;;;27.22;29.20
70198;BME280;57582;-34.876;138.628;2022-12-18T02:40:26;101055;;;27.15;29.74
70198;BME280;57582;-34.876;138.628;2022-12-18T02:43:27;101055;;;27.21;30.21
70198;BME280;57582;-34.876;138.628;2022-12-18T02:55:31;101041;;;27.63;29.19
70198;BME280;57582;-34.876;138.628;2022-12-18T03:04:28;101025;;;28.15;28.16
70198;BME280;57582;-34.876;138.628;2022-12-18T03:07:33;101020;;;28.26;28.24
70198;BME280;57582;-34.876;138.628;2022-12-18T03:10:27;101017;;;28.28;28.03
70198;BME280;57582;-34.876;138.628;2022-12-18T03:13:28;101013;;;28.18;27.98
70198;BME280;57582;-34.876;138.628;2022-12-18T03:16:27;101008;;;28.32;28.39
70198;BME280;57582;-34.876;138.628;2022-12-18T03:19:27;101000;;;28.20;28.65
70198;BME280;57582;-34.876;138.628;2022-12-18T03:22:27;100986;;;28.62;28.13
70198;BME280;57582;-34.876;138.628;2022-12-18T03:25:26;100996;;;29.02;28.35
70198;BME280;57582;-34.876;138.628;2022-12-18T03:28:26;100985;;;29.02;27.47
70198;BME280;57582;-34.876;138.628;2022-12-18T03:31:28;100980;;;29.26;27.87
70198;BME280;57582;-34.876;138.628;2022-12-18T03:34:27;100976;;;29.57;26.73
70198;BME280;57582;-34.876;138.628;2022-12-18T03:37:26;100965;;;29.17;26.06
70198;BME280;57582;-34.876;138.628;2022-12-18T03:40:29;100962;;;29.61;26.20
70198;BME280;57582;-34.876;138.628;2022-12-18T03:46:30;100961;;;30.35;23.74
70198;BME280;57582;-34.876;138.628;2022-12-18T03:52:28;100947;;;30.19;24.47
70198;BME280;57582;-34.876;138.628;2022-12-18T03:55:27;100945;;;30.33;25.46
70198;BME280;57582;-34.876;138.628;2022-12-18T03:58:26;100939;;;30.21;24.32
70198;BME280;57582;-34.876;138.628;2022-12-18T04:01:31;100932;;;29.57;23.62
70198;BME280;57582;-34.876;138.628;2022-12-18T04:04:27;100929;;;29.07;24.58
70198;BME280;57582;-34.876;138.628;2022-12-18T04:07:27;100920;;;28.77;25.35
70198;BME280;57582;-34.876;138.628;2022-12-18T04:10:26;100919;;;28.75;24.73
70198;BME280;57582;-34.876;138.628;2022-12-18T04:13:28;100904;;;28.92;24.32
70198;BME280;57582;-34.876;138.628;2022-12-18T04:16:27;100909;;;28.98;24.51
70198;BME280;57582;-34.876;138.628;2022-12-18T04:19:27;100914;;;28.64;24.37
70198;BME280;57582;-34.876;138.628;2022-12-18T04:22:26;100904;;;28.76;24.12
70198;BME280;57582;-34.876;138.628;2022-12-18T04:25:26;100894;;;28.94;25.48
70198;BME280;57582;-34.876;138.628;2022-12-18T04:28:26;100893;;;29.05;24.78
70198;BME280;57582;-34.876;138.628;2022-12-18T04:31:27;100883;;;28.80;23.97
70198;BME280;57582;-34.876;138.628;2022-12-18T04:34:26;100879;;;28.61;24.07
70198;BME280;57582;-34.876;138.628;2022-12-18T04:37:26;100875;;;28.75;24.38
70198;BME280;57582;-34.876;138.628;2022-12-18T04:40:26;100876;;;28.86;24.58
70198;BME280;57582;-34.876;138.628;2022-12-18T04:43:27;100879;;;29.01;24.22
70198;BME280;57582;-34.876;138.628;2022-12-18T04:46:26;100866;;;29.17;24.11
70198;BME280;57582;-34.876;138.628;2022-12-18T04:49:26;100864;;;29.20;24.92
70198;BME280;57582;-34.876;138.628;2022-12-18T04:52:26;100866;;;29.32;23.85
70198;BME280;57582;-34.876;138.628;2022-12-18T04:55:28;100860;;;29.17;23.43
70198;BME280;57582;-34.876;138.628;2022-12-18T04:58:26;100856;;;29.13;23.52
70198;BME280;57582;-34.876;138.628;2022-12-18T05:01:26;100861;;;29.01;23.47
70198;BME280;57582;-34.876;138.628;2022-12-18T05:04:26;100854;;;28.73;23.63
70198;BME280;57582;-34.876;138.628;2022-12-18T05:07:27;100852;;;28.80;24.09
70198;BME280;57582;-34.876;138.628;2022-12-18T05:10:26;100850;;;28.89;23.38
70198;BME280;57582;-34.876;138.628;2022-12-18T05:13:27;100842;;;28.99;23.31
70198;BME280;57582;-34.876;138.628;2022-12-18T05:16:26;100848;;;29.38;25.91
70198;BME280;57582;-34.876;138.628;2022-12-18T05:19:27;100835;;;29.53;24.54
70198;BME280;57582;-34.876;138.628;2022-12-18T05:22:26;100829;;;29.81;22.65
70198;BME280;57582;-34.876;138.628;2022-12-18T05:25:26;100826;;;29.87;23.75
70198;BME280;57582;-34.876;138.628;2022-12-18T05:28:27;100826;;;29.91;24.35
70198;BME280;57582;-34.876;138.628;2022-12-18T05:31:27;100822;;;30.14;22.68
70198;BME280;57582;-34.876;138.628;2022-12-18T05:34:26;100820;;;29.72;23.02
70198;BME280;57582;-34.876;138.628;2022-12-18T05:37:26;100815;;;29.69;22.75
70198;BME280;57582;-34.876;138.628;2022-12-18T05:40:26;100815;;;29.74;22.67
70198;BME280;57582;-34.876;138.628;2022-12-18T05:43:27;100814;;;29.85;22.15
70198;BME280;57582;-34.876;138.628;2022-12-18T05:46:27;100822;;;29.85;22.41
70198;BME280;57582;-34.876;138.628;2022-12-18T05:49:26;100820;;;29.53;21.89
70198;BME280;57582;-34.876;138.628;2022-12-18T05:52:26;100803;;;29.60;21.85
70198;BME280;57582;-34.876;138.628;2022-12-18T05:55:27;100804;;;29.44;21.79
70198;BME280;57582;-34.876;138.628;2022-12-18T05:58:26;100809;;;29.36;22.68
70198;BME280;57582;-34.876;138.628;2022-12-18T06:01:27;100802;;;29.53;22.08
70198;BME280;57582;-34.876;138.628;2022-12-18T06:04:27;100797;;;29.53;21.94
70198;BME280;57582;-34.876;138.628;2022-12-18T06:07:27;100796;;;29.73;21.39
70198;BME280;57582;-34.876;138.628;2022-12-18T06:10:26;100797;;;29.56;21.69
70198;BME280;57582;-34.876;138.628;2022-12-18T06:13:26;100788;;;29.63;21.51
70198;BME280;57582;-34.876;138.628;2022-12-18T06:16:27;100785;;;29.46;22.19
70198;BME280;57582;-34.876;138.628;2022-12-18T06:19:27;100770;;;29.74;21.69
70198;BME280;57582;-34.876;138.628;2022-12-18T06:22:27;100774;;;29.98;22.33
70198;BME280;57582;-34.876;138.628;2022-12-18T06:25:27;100764;;;30.21;21.89
70198;BME280;57582;-34.876;138.628;2022-12-18T06:28:27;100763;;;30.36;21.12
70198;BME280;57582;-34.876;138.628;2022-12-18T06:31:27;100757;;;30.72;20.92
70198;BME280;57582;-34.876;138.628;2022-12-18T06:34:27;100764;;;30.95;20.72
70198;BME280;57582;-34.876;138.628;2022-12-18T06:37:27;100758;;;29.95;20.78
70198;BME280;57582;-34.876;138.628;2022-12-18T06:40:27;100759;;;30.13;21.28
70198;BME280;57582;-34.876;138.628;2022-12-18T06:43:27;100759;;;30.26;20.23
70198;BME280;57582;-34.876;138.628;2022-12-18T06:46:27;100756;;;30.33;20.46
70198;BME280;57582;-34.876;138.628;2022-12-18T06:49:27;100754;;;30.50;23.40
70198;BME280;57582;-34.876;138.628;2022-12-18T06:52:27;100747;;;30.73;28.44
70198;BME280;57582;-34.876;138.628;2022-12-18T06:55:27;100747;;;30.70;29.93
70198;BME280;57582;-34.876;138.628;2022-12-18T06:58:27;100747;;;30.59;29.43
70198;BME280;57582;-34.876;138.628;2022-12-18T07:01:27;100740;;;30.60;29.62
70198;BME280;57582;-34.876;138.628;2022-12-18T07:04:27;100736;;;30.59;28.45
70198;BME280;57582;-34.876;138.628;2022-12-18T07:07:28;100748;;;30.45;28.06
70198;BME280;57582;-34.876;138.628;2022-12-18T07:10:27;100741;;;30.24;28.90
70198;BME280;57582;-34.876;138.628;2022-12-18T07:13:27;100744;;;30.39;28.54
70198;BME280;57582;-34.876;138.628;2022-12-18T07:16:27;100743;;;30.59;28.68
70198;BME280;57582;-34.876;138.628;2022-12-18T07:19:27;100745;;;30.70;28.87
70198;BME280;57582;-34.876;138.628;2022-12-18T07:22:27;100741;;;30.90;28.54
70198;BME280;57582;-34.876;138.628;2022-12-18T07:25:27;100748;;;30.85;28.54
70198;BME280;57582;-34.876;138.628;2022-12-18T07:28:27;100740;;;30.87;27.96
70198;BME280;57582;-34.876;138.628;2022-12-18T07:31:27;100749;;;30.76;26.54
70198;BME280;57582;-34.876;138.628;2022-12-18T07:34:27;100757;;;30.40;26.71
70198;BME280;57582;-34.876;138.628;2022-12-18T07:37:27;100760;;;29.94;27.55
70198;BME280;57582;-34.876;138.628;2022-12-18T07:40:27;100762;;;29.15;28.57
70198;BME280;57582;-34.876;138.628;2022-12-18T07:43:28;100766;;;28.89;29.37
70198;BME280;57582;-34.876;138.628;2022-12-18T07:46:27;100765;;;28.79;30.21
70198;BME280;57582;-34.876;138.628;2022-12-18T07:52:27;100766;;;28.66;30.11
70198;BME280;57582;-34.876;138.628;2022-12-18T07:55:27;100763;;;28.48;30.23
70198;BME280;57582;-34.876;138.628;2022-12-18T07:58:27;100763;;;28.43;30.55
70198;BME280;57582;-34.876;138.628;2022-12-18T08:01:27;100774;;;28.41;30.56
70198;BME280;57582;-34.876;138.628;2022-12-18T08:04:27;100777;;;28.04;30.68
70198;BME280;57582;-34.876;138.628;2022-12-18T08:07:27;100780;;;28.11;31.17
70198;BME280;57582;-34.876;138.628;2022-12-18T08:10:27;100789;;;27.86;31.26
70198;BME280;57582;-34.876;138.628;2022-12-18T08:13:27;100784;;;27.59;31.70
70198;BME280;57582;-34.876;138.628;2022-12-18T08:16:27;100793;;;27.43;32.49
70198;BME280;57582;-34.876;138.628;2022-12-18T08:19:27;100789;;;27.26;32.79
70198;BME280;57582;-34.876;138.628;2022-12-18T08:22:27;100791;;;27.23;32.90
70198;BME280;57582;-34.876;138.628;2022-12-18T08:25:27;100801;;;27.33;33.22
70198;BME280;57582;-34.876;138.628;2022-12-18T08:28:27;100802;;;27.22;31.70
70198;BME280;57582;-34.876;138.628;2022-12-18T08:31:29;100800;;;27.04;31.89
70198;BME280;57582;-34.876;138.628;2022-12-18T08:34:27;100802;;;26.88;31.87
70198;BME280;57582;-34.876;138.628;2022-12-18T08:37:27;100810;;;26.64;32.67
70198;BME280;57582;-34.876;138.628;2022-12-18T08:40:27;100806;;;26.69;32.74
70198;BME280;57582;-34.876;138.628;2022-12-18T08:43:28;100811;;;26.80;32.98
70198;BME280;57582;-34.876;138.628;2022-12-18T08:46:27;100817;;;26.69;33.34
70198;BME280;57582;-34.876;138.628;2022-12-18T08:49:27;100810;;;26.53;34.03
70198;BME280;57582;-34.876;138.628;2022-12-18T08:52:27;100818;;;26.83;34.07
70198;BME280;57582;-34.876;138.628;2022-12-18T08:55:27;100819;;;26.90;33.70
70198;BME280;57582;-34.876;138.628;2022-12-18T08:58:27;100827;;;27.05;33.79
70198;BME280;57582;-34.876;138.628;2022-12-18T09:01:27;100836;;;27.16;33.68
70198;BME280;57582;-34.876;138.628;2022-12-18T09:04:27;100833;;;27.19;32.94
70198;BME280;57582;-34.876;138.628;2022-12-18T09:07:29;100842;;;26.89;33.61
70198;BME280;57582;-34.876;138.628;2022-12-18T09:10:27;100848;;;26.64;33.37
70198;BME280;57582;-34.876;138.628;2022-12-18T09:13:27;100848;;;26.51;33.78
70198;BME280;57582;-34.876;138.628;2022-12-18T09:16:27;100850;;;25.93;34.68
70198;BME280;57582;-34.876;138.628;2022-12-18T09:19:27;100856;;;26.08;35.00
70198;BME280;57582;-34.876;138.628;2022-12-18T09:22:27;100861;;;26.02;35.01
70198;BME280;57582;-34.876;138.628;2022-12-18T09:25:28;100866;;;25.85;35.21
70198;BME280;57582;-34.876;138.628;2022-12-18T09:28:27;100875;;;25.84;35.12
70198;BME280;57582;-34.876;138.628;2022-12-18T09:31:27;100875;;;25.95;35.35
70198;BME280;57582;-34.876;138.628;2022-12-18T09:34:27;100884;;;25.99;35.47
70198;BME280;57582;-34.876;138.628;2022-12-18T09:37:27;100879;;;25.96;35.33
70198;BME280;57582;-34.876;138.628;2022-12-18T09:40:28;100883;;;25.82;35.61
70198;BME280;57582;-34.876;138.628;2022-12-18T09:43:32;100891;;;25.72;35.99
70198;BME280;57582;-34.876;138.628;2022-12-18T09:46:30;100890;;;25.42;36.71
70198;BME280;57582;-34.876;138.628;2022-12-18T09:49:28;100891;;;25.25;37.38
70198;BME280;57582;-34.876;138.628;2022-12-18T09:52:29;100895;;;25.18;37.39
70198;BME280;57582;-34.876;138.628;2022-12-18T09:55:30;100898;;;24.97;37.93
70198;BME280;57582;-34.876;138.628;2022-12-18T10:01:27;100894;;;24.73;38.38
70198;BME280;57582;-34.876;138.628;2022-12-18T10:04:27;100895;;;24.69;38.64
70198;BME280;57582;-34.876;138.628;2022-12-18T10:07:30;100897;;;24.60;38.87
70198;BME280;57582;-34.876;138.628;2022-12-18T10:10:32;100896;;;24.69;38.59
70198;BME280;57582;-34.876;138.628;2022-12-18T10:28:27;100907;;;24.21;39.31
70198;BME280;57582;-34.876;138.628;2022-12-18T10:31:28;100917;;;24.19;39.39
70198;BME280;57582;-34.876;138.628;2022-12-18T10:34:27;100919;;;23.99;39.94
70198;BME280;57582;-34.876;138.628;2022-12-18T10:37:28;100918;;;23.76;40.27
70198;BME280;57582;-34.876;138.628;2022-12-18T10:40:27;100926;;;23.61;40.49
70198;BME280;57582;-34.876;138.628;2022-12-18T10:46:27;100927;;;23.82;40.57
70198;BME280;57582;-34.876;138.628;2022-12-18T10:49:30;100926;;;23.94;40.30
70198;BME280;57582;-34.876;138.628;2022-12-18T10:52:27;100930;;;23.90;40.22
70198;BME280;57582;-34.876;138.628;2022-12-18T10:55:31;100933;;;23.99;40.17
70198;BME280;57582;-34.876;138.628;2022-12-18T10:58:29;100939;;;23.94;40.30
70198;BME280;57582;-34.876;138.628;2022-12-18T11:01:27;100935;;;23.77;40.68
70198;BME280;57582;-34.876;138.628;2022-12-18T11:04:28;100942;;;23.44;41.01
70198;BME280;57582;-34.876;138.628;2022-12-18T11:10:30;100935;;;23.58;40.64
70198;BME280;57582;-34.876;138.628;2022-12-18T11:13:28;100934;;;23.73;40.68
70198;BME280;57582;-34.876;138.628;2022-12-18T11:16:27;100946;;;23.85;40.40
70198;BME280;57582;-34.876;138.628;2022-12-18T11:22:29;100943;;;23.76;39.97
70198;BME280;57582;-34.876;138.628;2022-12-18T11:25:27;100948;;;23.78;40.24
70198;BME280;57582;-34.876;138.628;2022-12-18T11:28:29;100951;;;23.63;40.39
70198;BME280;57582;-34.876;138.628;2022-12-18T11:31:28;100948;;;23.29;40.95
70198;BME280;57582;-34.876;138.628;2022-12-18T11:34:29;100950;;;23.13;41.42
70198;BME280;57582;-34.876;138.628;2022-12-18T11:37:27;100957;;;22.92;41.94
70198;BME280;57582;-34.876;138.628;2022-12-18T11:40:30;100954;;;22.89;41.87
70198;BME280;57582;-34.876;138.628;2022-12-18T11:43:31;100945;;;22.90;41.86
70198;BME280;57582;-34.876;138.628;2022-12-18T11:46:37;100943;;;22.79;41.96
70198;BME280;57582;-34.876;138.628;2022-12-18T11:49:32;100943;;;22.75;41.95
70198;BME280;57582;-34.876;138.628;2022-12-18T11:52:43;100947;;;22.84;41.72
70198;BME280;57582;-34.876;138.628;2022-12-18T11:55:30;100944;;;22.76;41.73
70198;BME280;57582;-34.876;138.628;2022-12-18T11:58:38;100938;;;22.84;41.78
70198;BME280;57582;-34.876;138.628;2022-12-18T12:28:44;100928;;;23.32;39.50
70198;BME280;57582;-34.876;138.628;2022-12-18T12:34:31;100922;;;23.39;39.38
70198;BME280;57582;-34.876;138.628;2022-12-18T12:40:28;100927;;;23.73;38.78
70198;BME280;57582;-34.876;138.628;2022-12-18T12:46:27;100920;;;24.12;37.93
70198;BME280;57582;-34.876;138.628;2022-12-18T12:49:29;100924;;;24.27;37.53
70198;BME280;57582;-34.876;138.628;2022-12-18T12:55:28;100927;;;24.38;37.11
70198;BME280;57582;-34.876;138.628;2022-12-18T13:01:32;100932;;;24.13;37.76
70198;BME280;57582;-34.876;138.628;2022-12-18T13:04:41;100931;;;24.06;38.06
70198;BME280;57582;-34.876;138.628;2022-12-18T13:07:29;100935;;;24.07;38.04
70198;BME280;57582;-34.876;138.628;2022-12-18T13:10:32;100927;;;24.02;38.20
70198;BME280;57582;-34.876;138.628;2022-12-18T13:13:27;100932;;;23.94;38.48
70198;BME280;57582;-34.876;138.628;2022-12-18T13:16:27;100925;;;23.74;38.92
70198;BME280;57582;-34.876;138.628;2022-12-18T13:19:28;100928;;;23.59;39.33
70198;BME280;57582;-34.876;138.628;2022-12-18T13:22:30;100926;;;23.46;39.59
70198;BME280;57582;-34.876;138.628;2022-12-18T13:25:35;100924;;;23.23;39.93
70198;BME280;57582;-34.876;138.628;2022-12-18T13:34:28;100914;;;23.08;40.09
70198;BME280;57582;-34.876;138.628;2022-12-18T13:37:43;100914;;;22.81;40.69
70198;BME280;57582;-34.876;138.628;2022-12-18T13:46:29;100918;;;22.20;41.68
70198;BME280;57582;-34.876;138.628;2022-12-18T13:52:29;100906;;;22.10;41.78
70198;BME280;57582;-34.876;138.628;2022-12-18T13:55:28;100900;;;22.26;41.33
70198;BME280;57582;-34.876;138.628;2022-12-18T13:58:27;100893;;;22.32;41.00
70198;BME280;57582;-34.876;138.628;2022-12-18T14:01:27;100898;;;22.38;40.51
70198;BME280;57582;-34.876;138.628;2022-12-18T14:04:29;100891;;;22.39;40.12
70198;BME280;57582;-34.876;138.628;2022-12-18T14:07:28;100897;;;22.21;39.99
70198;BME280;57582;-34.876;138.628;2022-12-18T14:10:27;100892;;;22.28;39.47
70198;BME280;57582;-34.876;138.628;2022-12-18T14:13:29;100886;;;22.34;37.79
70198;BME280;57582;-34.876;138.628;2022-12-18T14:16:27;100882;;;22.52;37.32
70198;BME280;57582;-34.876;138.628;2022-12-18T14:19:28;100879;;;22.71;36.05
70198;BME280;57582;-34.876;138.628;2022-12-18T14:22:27;100886;;;22.94;35.63
70198;BME280;57582;-34.876;138.628;2022-12-18T14:25:28;100881;;;23.19;35.01
70198;BME280;57582;-34.876;138.628;2022-12-18T14:28:27;100879;;;23.28;34.71
70198;BME280;57582;-34.876;138.628;2022-12-18T14:31:29;100876;;;23.29;34.72
70198;BME280;57582;-34.876;138.628;2022-12-18T14:34:27;100884;;;23.36;34.63
70198;BME280;57582;-34.876;138.628;2022-12-18T14:37:27;100877;;;23.40;34.30
70198;BME280;57582;-34.876;138.628;2022-12-18T14:40:27;100879;;;23.40;34.00
70198;BME280;57582;-34.876;138.628;2022-12-18T14:43:29;100872;;;23.52;34.26
70198;BME280;57582;-34.876;138.628;2022-12-18T14:46:29;100867;;;23.59;33.44
70198;BME280;57582;-34.876;138.628;2022-12-18T14:52:28;100865;;;23.57;33.53
70198;BME280;57582;-34.876;138.628;2022-12-18T14:55:28;100866;;;23.51;33.74
70198;BME280;57582;-34.876;138.628;2022-12-18T14:58:27;100865;;;23.48;33.85
70198;BME280;57582;-34.876;138.628;2022-12-18T15:01:28;100861;;;23.44;33.99
70198;BME280;57582;-34.876;138.628;2022-12-18T15:04:32;100861;;;23.49;33.81
70198;BME280;57582;-34.876;138.628;2022-12-18T15:07:34;100850;;;23.50;33.86
70198;BME280;57582;-34.876;138.628;2022-12-18T15:13:27;100854;;;23.34;34.20
70198;BME280;57582;-34.876;138.628;2022-12-18T15:16:27;100859;;;23.34;34.26
70198;BME280;57582;-34.876;138.628;2022-12-18T15:19:37;100863;;;23.31;34.23
70198;BME280;57582;-34.876;138.628;2022-12-18T15:22:28;100853;;;23.28;34.35
70198;BME280;57582;-34.876;138.628;2022-12-18T15:25:31;100848;;;23.30;34.04
70198;BME280;57582;-34.876;138.628;2022-12-18T15:31:29;100846;;;23.35;33.65
70198;BME280;57582;-34.876;138.628;2022-12-18T15:34:28;100840;;;23.39;33.11
70198;BME280;57582;-34.876;138.628;2022-12-18T15:37:27;100829;;;23.36;32.71
70198;BME280;57582;-34.876;138.628;2022-12-18T15:40:27;100832;;;23.41;32.67
70198;BME280;57582;-34.876;138.628;2022-12-18T15:43:29;100828;;;23.44;32.60
70198;BME280;57582;-34.876;138.628;2022-12-18T15:46:27;100822;;;23.45;32.52
70198;BME280;57582;-34.876;138.628;2022-12-18T15:49:27;100830;;;23.40;32.00
70198;BME280;57582;-34.876;138.628;2022-12-18T15:52:27;100828;;;23.42;31.84
70198;BME280;57582;-34.876;138.628;2022-12-18T15:55:29;100831;;;23.42;31.53
70198;BME280;57582;-34.876;138.628;2022-12-18T15:58:27;100823;;;23.47;31.26
70198;BME280;57582;-34.876;138.628;2022-12-18T16:01:29;100825;;;23.43;30.82
70198;BME280;57582;-34.876;138.628;2022-12-18T16:04:27;100822;;;23.46;30.64
70198;BME280;57582;-34.876;138.628;2022-12-18T16:07:28;100818;;;23.49;30.41
70198;BME280;57582;-34.876;138.628;2022-12-18T16:10:28;100826;;;23.44;30.41
70198;BME280;57582;-34.876;138.628;2022-12-18T16:13:28;100818;;;23.41;30.02
70198;BME280;57582;-34.876;138.628;2022-12-18T16:16:27;100820;;;23.44;30.17
70198;BME280;57582;-34.876;138.628;2022-12-18T16:19:29;100822;;;23.45;30.05
70198;BME280;57582;-34.876;138.628;2022-12-18T16:22:28;100830;;;23.51;30.10
70198;BME280;57582;-34.876;138.628;2022-12-18T16:25:28;100830;;;23.46;30.27
70198;BME280;57582;-34.876;138.628;2022-12-18T16:28:27;100832;;;23.51;30.39
70198;BME280;57582;-34.876;138.628;2022-12-18T16:31:28;100825;;;23.52;30.58
70198;BME280;57582;-34.876;138.628;2022-12-18T16:37:28;100830;;;23.53;31.05
70198;BME280;57582;-34.876;138.628;2022-12-18T16:40:28;100830;;;23.45;31.17
70198;BME280;57582;-34.876;138.628;2022-12-18T16:43:28;100842;;;23.37;31.35
70198;BME280;57582;-34.876;138.628;2022-12-18T16:46:28;100839;;;23.33;31.50
70198;BME280;57582;-34.876;138.628;2022-12-18T16:49:28;100833;;;23.26;31.63
70198;BME280;57582;-34.876;138.628;2022-12-18T16:52:28;100837;;;23.30;31.58
70198;BME280;57582;-34.876;138.628;2022-12-18T16:55:29;100830;;;23.23;31.79
70198;BME280;57582;-34.876;138.628;2022-12-18T16:58:28;100834;;;23.25;31.80
70198;BME280;57582;-34.876;138.628;2022-12-18T17:01:28;100824;;;23.16;32.02
70198;BME280;57582;-34.876;138.628;2022-12-18T17:04:28;100835;;;23.16;32.10
70198;BME280;57582;-34.876;138.628;2022-12-18T17:07:28;100822;;;23.08;32.20
70198;BME280;57582;-34.876;138.628;2022-12-18T17:10:28;100823;;;22.99;32.40
70198;BME280;57582;-34.876;138.628;2022-12-18T17:13:28;100823;;;22.99;32.56
70198;BME280;57582;-34.876;138.628;2022-12-18T17:16:28;100811;;;22.92;32.45
70198;BME280;57582;-34.876;138.628;2022-12-18T17:19:28;100810;;;22.91;32.60
70198;BME280;57582;-34.876;138.628;2022-12-18T17:22:28;100816;;;22.85;32.78
70198;BME280;57582;-34.876;138.628;2022-12-18T17:25:28;100817;;;22.84;32.93
70198;BME280;57582;-34.876;138.628;2022-12-18T17:28:28;100820;;;22.81;33.06
70198;BME280;57582;-34.876;138.628;2022-12-18T17:31:28;100831;;;22.82;33.13
70198;BME280;57582;-34.876;138.628;2022-12-18T17:34:28;100819;;;22.87;33.16
70198;BME280;57582;-34.876;138.628;2022-12-18T17:37:28;100832;;;22.84;33.27
70198;BME280;57582;-34.876;138.628;2022-12-18T17:40:28;100828;;;22.76;33.44
70198;BME280;57582;-34.876;138.628;2022-12-18T17:43:28;100828;;;22.70;33.59
70198;BME280;57582;-34.876;138.628;2022-12-18T17:46:28;100839;;;22.70;33.81
70198;BME280;57582;-34.876;138.628;2022-12-18T17:49:28;100847;;;22.70;33.85
70198;BME280;57582;-34.876;138.628;2022-12-18T17:52:28;100846;;;22.60;34.02
70198;BME280;57582;-34.876;138.628;2022-12-18T17:55:29;100856;;;22.57;33.96
70198;BME280;57582;-34.876;138.628;2022-12-18T17:58:28;100853;;;22.60;33.94
70198;BME280;57582;-34.876;138.628;2022-12-18T18:01:28;100857;;;22.58;34.02
70198;BME280;57582;-34.876;138.628;2022-12-18T18:04:28;100858;;;22.57;34.17